createdAt,value
2022-09-06T00:00:22.972Z,19.00
2022-09-06T00:01:22.978Z,18.95
2022-09-06T00:02:22.996Z,19.02
2022-09-06T00:03:22.990Z,19.02
2022-09-06T00:04:23.034Z,19.00
2022-09-06T00:05:22.994Z,18.90
2022-09-06T00:06:22.997Z,18.87
2022-09-06T00:07:23.005Z,18.90
2022-09-06T00:08:23.072Z,18.87
2022-09-06T00:09:23.027Z,18.87
2022-09-06T00:10:23.018Z,18.87
2022-09-06T00:11:23.017Z,18.84
2022-09-06T00:12:23.020Z,18.91
2022-09-06T00:13:23.041Z,18.81
2022-09-06T00:14:23.022Z,18.87
2022-09-06T00:15:23.015Z,18.85
2022-09-06T00:16:25.296Z,18.90
2022-09-06T00:17:23.051Z,18.87
2022-09-06T00:18:23.064Z,18.82
2022-09-06T00:19:23.064Z,18.84
2022-09-06T00:20:23.063Z,18.78
2022-09-06T00:21:23.043Z,18.78
2022-09-06T00:22:23.036Z,18.85
2022-09-06T00:23:23.034Z,18.76
2022-09-06T00:24:23.079Z,18.70
2022-09-06T00:25:23.041Z,18.73
2022-09-06T00:26:23.057Z,18.67
2022-09-06T00:27:23.059Z,18.73
2022-09-06T00:28:23.094Z,18.72
2022-09-06T00:29:23.068Z,18.75
2022-09-06T00:30:23.098Z,18.69
2022-09-06T00:31:23.125Z,18.66
2022-09-06T00:32:23.074Z,18.70
2022-09-06T00:33:23.079Z,18.69
2022-09-06T00:34:23.074Z,18.69
2022-09-06T00:35:23.084Z,18.72
2022-09-06T00:36:23.090Z,18.75
2022-09-06T00:37:23.088Z,18.52
2022-09-06T00:38:23.139Z,18.55
2022-09-06T00:39:23.157Z,18.60
2022-09-06T00:40:23.117Z,18.66
2022-09-06T00:41:23.114Z,18.60
2022-09-06T00:42:23.100Z,18.60
2022-09-06T00:43:23.103Z,18.52
2022-09-06T00:44:23.131Z,18.57
2022-09-06T00:45:23.135Z,18.60
2022-09-06T00:46:23.163Z,18.58
2022-09-06T00:47:23.105Z,18.58
2022-09-06T00:48:23.130Z,18.52
2022-09-06T00:49:23.110Z,18.54
2022-09-06T00:50:23.127Z,18.58
2022-09-06T00:51:23.119Z,18.55
2022-09-06T00:52:23.137Z,18.58
2022-09-06T00:53:23.169Z,18.51
2022-09-06T00:54:23.119Z,18.52
2022-09-06T00:55:23.133Z,18.45
2022-09-06T00:56:23.148Z,18.54
2022-09-06T00:57:23.135Z,18.54
2022-09-06T00:58:23.254Z,18.48
2022-09-06T00:59:23.134Z,18.48
2022-09-06T01:00:23.176Z,18.47
2022-09-06T01:01:23.310Z,18.50
2022-09-06T01:02:23.210Z,18.48
2022-09-06T01:03:23.159Z,18.45
2022-09-06T01:04:23.171Z,18.45
2022-09-06T01:05:23.156Z,18.45
2022-09-06T01:06:23.154Z,18.44
2022-09-06T01:07:23.154Z,18.39
2022-09-06T01:08:23.219Z,18.42
2022-09-06T01:09:23.168Z,18.37
2022-09-06T01:10:23.179Z,18.42
2022-09-06T01:11:23.176Z,18.30
2022-09-06T01:12:23.180Z,18.37
2022-09-06T01:13:23.184Z,18.39
2022-09-06T01:14:23.183Z,18.45
2022-09-06T01:15:23.287Z,18.50
2022-09-06T01:16:23.190Z,18.50
2022-09-06T01:17:23.193Z,18.48
2022-09-06T01:18:23.242Z,18.45
2022-09-06T01:19:23.200Z,18.36
2022-09-06T01:20:23.201Z,18.42
2022-09-06T01:21:23.192Z,18.48
2022-09-06T01:22:23.190Z,18.41
2022-09-06T01:23:23.196Z,18.41
2022-09-06T01:24:23.204Z,18.41
2022-09-06T01:25:23.225Z,18.39
2022-09-06T01:26:23.226Z,18.42
2022-09-06T01:27:23.227Z,18.35
2022-09-06T01:28:23.285Z,18.33
2022-09-06T01:29:23.224Z,18.29
2022-09-06T01:30:23.225Z,18.27
2022-09-06T01:31:23.317Z,18.18
2022-09-06T01:32:23.219Z,18.30
2022-09-06T01:33:23.230Z,18.25
2022-09-06T01:34:23.232Z,18.18
2022-09-06T01:35:23.227Z,18.15
2022-09-06T01:36:23.252Z,18.20
2022-09-06T01:37:23.233Z,18.07
2022-09-06T01:40:02.978Z,18.14
2022-09-06T01:40:55.299Z,18.11
2022-09-06T01:41:55.311Z,18.07
2022-09-06T01:42:55.299Z,18.11
2022-09-06T01:43:55.314Z,17.96
2022-09-06T01:44:55.298Z,17.99
2022-09-06T01:45:55.352Z,17.97
2022-09-06T01:46:55.328Z,17.96
2022-09-06T01:47:55.342Z,18.00
2022-09-06T01:48:55.340Z,17.90
2022-09-06T01:49:55.322Z,17.92
2022-09-06T01:50:55.338Z,17.96
2022-09-06T01:51:55.317Z,17.89
2022-09-06T01:52:55.320Z,17.93
2022-09-06T01:53:55.357Z,17.93
2022-09-06T01:54:55.322Z,17.90
2022-09-06T01:55:55.327Z,17.93
2022-09-06T01:56:55.356Z,17.86
2022-09-06T01:57:55.347Z,17.90
2022-09-06T01:58:55.367Z,17.95
2022-09-06T01:59:55.363Z,17.90
2022-09-06T02:00:55.336Z,17.82
2022-09-06T02:01:55.413Z,17.90
2022-09-06T02:02:55.393Z,17.84
2022-09-06T02:03:55.362Z,17.81
2022-09-06T02:04:55.351Z,17.79
2022-09-06T02:05:55.356Z,17.78
2022-09-06T02:06:55.366Z,17.74
2022-09-06T02:07:55.368Z,17.79
2022-09-06T02:08:55.371Z,17.78
2022-09-06T02:09:55.366Z,17.77
2022-09-06T02:10:55.387Z,17.78
2022-09-06T02:11:55.365Z,17.75
2022-09-06T02:12:55.365Z,17.71
2022-09-06T02:13:55.390Z,17.70
2022-09-06T02:14:55.371Z,17.70
2022-09-06T02:15:55.382Z,17.72
2022-09-06T02:16:55.427Z,17.74
2022-09-06T02:17:55.396Z,17.63
2022-09-06T02:18:55.379Z,17.64
2022-09-06T02:19:55.388Z,17.71
2022-09-06T02:20:55.391Z,17.63
2022-09-06T02:21:55.406Z,17.64
2022-09-06T02:22:55.404Z,17.71
2022-09-06T02:23:55.400Z,17.68
2022-09-06T02:24:55.399Z,17.71
2022-09-06T02:25:55.401Z,17.59
2022-09-06T02:26:55.417Z,17.56
2022-09-06T02:27:55.405Z,17.62
2022-09-06T02:28:55.408Z,17.55
2022-09-06T02:29:55.415Z,17.58
2022-09-06T02:30:55.507Z,17.55
2022-09-06T02:31:55.426Z,17.62
2022-09-06T02:32:55.433Z,17.63
2022-09-06T02:33:55.418Z,17.54
2022-09-06T02:34:55.441Z,17.59
2022-09-06T02:35:55.419Z,17.56
2022-09-06T02:36:55.431Z,17.55
2022-09-06T02:37:55.437Z,17.55
2022-09-06T02:38:55.426Z,17.56
2022-09-06T02:39:55.504Z,17.56
2022-09-06T02:40:55.430Z,17.55
2022-09-06T02:41:55.465Z,17.58
2022-09-06T02:42:55.434Z,17.54
2022-09-06T02:43:55.443Z,17.55
2022-09-06T02:44:55.450Z,17.51
2022-09-06T02:45:55.517Z,17.56
2022-09-06T02:46:57.240Z,17.52
2022-09-06T02:47:55.466Z,17.52
2022-09-06T02:48:55.466Z,17.52
2022-09-06T02:49:55.449Z,17.55
2022-09-06T02:50:55.453Z,17.55
2022-09-06T02:51:55.449Z,17.54
2022-09-06T02:52:55.468Z,17.52
2022-09-06T02:53:55.476Z,17.46
2022-09-06T02:54:55.489Z,17.48
2022-09-06T02:55:55.458Z,17.54
2022-09-06T02:56:55.484Z,17.55
2022-09-06T02:57:55.476Z,17.46
2022-09-06T02:58:55.478Z,17.54
2022-09-06T02:59:55.469Z,17.52
2022-09-06T03:00:55.517Z,17.49
2022-09-06T03:01:55.548Z,17.51
2022-09-06T03:02:55.473Z,17.52
2022-09-06T03:04:03.027Z,17.52
2022-09-06T03:04:55.497Z,17.49
2022-09-06T03:05:55.490Z,17.52
2022-09-06T03:06:55.494Z,17.55
2022-09-06T03:07:55.483Z,17.48
2022-09-06T03:08:55.511Z,17.49
2022-09-06T03:09:55.497Z,17.37
2022-09-06T03:10:55.507Z,17.49
2022-09-06T03:11:55.524Z,17.49
2022-09-06T03:12:55.498Z,17.49
2022-09-06T03:13:55.495Z,17.55
2022-09-06T03:14:55.497Z,17.55
2022-09-06T03:15:55.514Z,17.43
2022-09-06T03:16:55.603Z,17.48
2022-09-06T03:17:55.518Z,17.55
2022-09-06T03:18:55.512Z,17.51
2022-09-06T03:19:55.517Z,17.59
2022-09-06T03:20:55.534Z,17.46
2022-09-06T03:21:55.516Z,17.48
2022-09-06T03:22:55.525Z,17.49
2022-09-06T03:23:55.519Z,17.51
2022-09-06T03:24:55.529Z,17.55
2022-09-06T03:25:55.537Z,17.55
2022-09-06T03:26:55.536Z,17.52
2022-09-06T03:27:55.556Z,17.44
2022-09-06T03:28:55.522Z,17.48
2022-09-06T03:29:55.526Z,17.48
2022-09-06T03:30:55.594Z,17.52
2022-09-06T03:31:55.540Z,17.58
2022-09-06T03:32:55.555Z,17.44
2022-09-06T03:33:55.547Z,17.46
2022-09-06T03:34:55.537Z,17.46
2022-09-06T03:35:55.550Z,17.51
2022-09-06T03:36:55.538Z,17.52
2022-09-06T03:37:55.561Z,17.59
2022-09-06T03:38:55.557Z,17.54
2022-09-06T03:39:55.612Z,17.52
2022-09-06T03:40:55.546Z,17.52
2022-09-06T03:41:55.570Z,17.55
2022-09-06T03:42:55.564Z,17.44
2022-09-06T03:43:55.568Z,17.28
2022-09-06T03:44:55.563Z,17.37
2022-09-06T03:45:55.593Z,17.40
2022-09-06T03:46:55.592Z,17.34
2022-09-06T03:47:55.568Z,17.36
2022-09-06T03:48:55.585Z,17.38
2022-09-06T03:49:55.565Z,17.37
2022-09-06T03:50:55.567Z,17.31
2022-09-06T03:51:55.578Z,17.31
2022-09-06T03:52:55.598Z,17.37
2022-09-06T03:53:55.586Z,17.36
2022-09-06T03:54:55.575Z,17.26
2022-09-06T03:55:55.609Z,17.23
2022-09-06T03:56:55.584Z,17.21
2022-09-06T03:57:55.599Z,17.18
2022-09-06T03:58:55.598Z,17.18
2022-09-06T03:59:55.599Z,17.15
2022-09-06T04:00:55.639Z,17.21
2022-09-06T04:01:55.659Z,17.14
2022-09-06T04:02:59.692Z,17.21
2022-09-06T04:03:55.610Z,17.25
2022-09-06T04:04:55.632Z,17.18
2022-09-06T04:05:55.609Z,17.19
2022-09-06T04:06:55.607Z,17.19
2022-09-06T04:07:55.600Z,17.19
2022-09-06T04:08:55.627Z,17.28
2022-09-06T04:09:55.618Z,17.22
2022-09-06T04:10:55.604Z,17.28
2022-09-06T04:11:55.611Z,17.26
2022-09-06T04:12:55.629Z,17.28
2022-09-06T04:13:55.616Z,17.25
2022-09-06T04:14:55.641Z,17.31
2022-09-06T04:15:55.637Z,17.31
2022-09-06T04:16:55.661Z,17.21
2022-09-06T04:17:55.635Z,17.22
2022-09-06T04:18:55.637Z,17.19
2022-09-06T04:19:55.623Z,17.25
2022-09-06T04:20:55.625Z,17.21
2022-09-06T04:21:55.642Z,17.25
2022-09-06T04:22:55.639Z,17.19
2022-09-06T04:23:55.630Z,17.16
2022-09-06T04:24:55.646Z,17.16
2022-09-06T04:25:55.658Z,17.22
2022-09-06T04:26:55.662Z,17.11
2022-09-06T04:27:55.641Z,17.12
2022-09-06T04:28:55.648Z,17.07
2022-09-06T04:29:55.653Z,17.00
2022-09-06T04:30:55.645Z,17.04
2022-09-06T04:31:55.736Z,17.00
2022-09-06T04:32:55.656Z,16.98
2022-09-06T04:33:55.663Z,16.91
2022-09-06T04:34:55.659Z,16.94
2022-09-06T04:35:55.664Z,16.98
2022-09-06T04:36:55.674Z,16.91
2022-09-06T04:37:55.671Z,16.85
2022-09-06T04:38:55.678Z,16.93
2022-09-06T04:39:55.778Z,16.93
2022-09-06T04:40:55.661Z,16.94
2022-09-06T04:41:55.663Z,16.89
2022-09-06T04:42:55.690Z,16.82
2022-09-06T04:43:55.672Z,16.94
2022-09-06T04:44:55.668Z,16.96
2022-09-06T04:45:55.737Z,16.82
2022-09-06T04:46:56.245Z,16.82
2022-09-06T04:47:55.673Z,16.83
2022-09-06T04:48:55.689Z,16.89
2022-09-06T04:49:55.679Z,16.86
2022-09-06T04:50:55.704Z,16.86
2022-09-06T04:51:55.682Z,16.79
2022-09-06T04:52:55.689Z,16.82
2022-09-06T04:53:55.696Z,16.88
2022-09-06T04:54:55.700Z,16.82
2022-09-06T04:55:55.699Z,16.81
2022-09-06T04:56:55.689Z,16.86
2022-09-06T04:57:55.693Z,16.82
2022-09-06T04:58:55.702Z,16.88
2022-09-06T04:59:55.706Z,16.83
2022-09-06T05:00:55.758Z,16.91
2022-09-06T05:01:55.803Z,16.89
2022-09-06T05:02:55.714Z,16.89
2022-09-06T05:03:57.102Z,16.89
2022-09-06T05:04:55.722Z,16.91
2022-09-06T05:05:55.718Z,16.89
2022-09-06T05:06:55.716Z,17.06
2022-09-06T05:07:55.722Z,17.06
2022-09-06T05:08:55.728Z,17.01
2022-09-06T05:09:55.734Z,17.00
2022-09-06T05:10:55.721Z,17.07
2022-09-06T05:11:55.742Z,17.11
2022-09-06T05:12:55.728Z,17.11
2022-09-06T05:13:55.721Z,17.12
2022-09-06T05:14:55.726Z,17.18
2022-09-06T05:15:55.746Z,17.25
2022-09-06T05:16:55.774Z,17.19
2022-09-06T05:17:55.748Z,17.21
2022-09-06T05:18:55.726Z,17.21
2022-09-06T05:19:55.736Z,17.18
2022-09-06T05:20:55.735Z,17.23
2022-09-06T05:21:55.736Z,17.18
2022-09-06T05:22:55.799Z,17.19
2022-09-06T05:23:58.655Z,17.19
2022-09-06T05:24:55.753Z,17.23
2022-09-06T05:25:55.746Z,17.19
2022-09-06T05:26:55.749Z,17.21
2022-09-06T05:27:55.749Z,17.25
2022-09-06T05:28:55.756Z,17.21
2022-09-06T05:29:55.749Z,17.22
2022-09-06T05:30:55.778Z,17.21
2022-09-06T05:31:55.780Z,17.21
2022-09-06T05:32:55.759Z,17.18
2022-09-06T05:33:55.785Z,17.19
2022-09-06T05:34:55.766Z,17.19
2022-09-06T05:35:55.763Z,17.21
2022-09-06T05:36:55.785Z,17.19
2022-09-06T05:37:55.764Z,17.21
2022-09-06T05:38:55.777Z,17.21
2022-09-06T05:39:55.844Z,17.25
2022-09-06T05:40:55.766Z,17.16
2022-09-06T05:41:55.771Z,17.15
2022-09-06T05:42:55.780Z,17.15
2022-09-06T05:43:55.791Z,17.12
2022-09-06T05:44:55.772Z,17.21
2022-09-06T05:45:55.909Z,17.15
2022-09-06T05:46:55.779Z,17.16
2022-09-06T05:47:55.782Z,17.22
2022-09-06T05:48:55.790Z,17.21
2022-09-06T05:49:55.805Z,17.18
2022-09-06T05:50:55.800Z,17.18
2022-09-06T05:51:55.793Z,17.15
2022-09-06T05:52:55.790Z,17.19
2022-09-06T05:53:55.801Z,17.21
2022-09-06T05:54:55.839Z,17.16
2022-09-06T05:55:55.790Z,17.14
2022-09-06T05:56:55.793Z,17.15
2022-09-06T05:57:55.803Z,17.22
2022-09-06T05:58:55.797Z,17.18
2022-09-06T05:59:55.804Z,17.21
2022-09-06T06:00:55.854Z,17.33
2022-09-06T06:01:55.838Z,17.34
2022-09-06T06:02:55.804Z,17.37
2022-09-06T06:03:55.822Z,17.41
2022-09-06T06:04:55.804Z,17.49
2022-09-06T06:05:55.817Z,17.52
2022-09-06T06:06:55.828Z,17.55
2022-09-06T06:07:55.829Z,17.62
2022-09-06T06:08:55.822Z,17.58
2022-09-06T06:09:55.810Z,17.70
2022-09-06T06:10:55.834Z,17.72
2022-09-06T06:11:55.832Z,17.77
2022-09-06T06:12:55.830Z,17.77
2022-09-06T06:13:55.838Z,17.75
2022-09-06T06:14:55.836Z,17.79
2022-09-06T06:15:55.831Z,17.92
2022-09-06T06:16:55.887Z,17.89
2022-09-06T06:17:55.828Z,17.96
2022-09-06T06:18:55.861Z,18.00
2022-09-06T06:19:55.843Z,18.00
2022-09-06T06:20:55.838Z,18.02
2022-09-06T06:21:55.857Z,18.08
2022-09-06T06:22:55.855Z,18.10
2022-09-06T06:23:55.848Z,18.10
2022-09-06T06:24:55.858Z,18.18
2022-09-06T06:25:55.841Z,18.23
2022-09-06T06:26:55.848Z,18.27
2022-09-06T06:27:55.857Z,18.21
2022-09-06T06:28:55.880Z,18.27
2022-09-06T06:29:55.866Z,18.21
2022-09-06T06:30:55.884Z,18.27
2022-09-06T06:31:55.909Z,18.35
2022-09-06T06:32:55.875Z,18.41
2022-09-06T06:33:55.875Z,18.33
2022-09-06T06:34:55.873Z,18.50
2022-09-06T06:35:55.865Z,18.57
2022-09-06T06:36:55.875Z,18.66
2022-09-06T06:37:55.868Z,18.80
2022-09-06T06:38:55.880Z,18.94
2022-09-06T06:39:55.972Z,18.95
2022-09-06T06:41:00.980Z,19.21
2022-09-06T06:41:55.879Z,19.28
2022-09-06T06:42:55.887Z,19.26
2022-09-06T06:43:55.882Z,19.36
2022-09-06T06:44:55.910Z,19.51
2022-09-06T06:45:55.938Z,19.78
2022-09-06T06:46:55.889Z,19.87
2022-09-06T06:47:55.891Z,19.91
2022-09-06T06:48:55.909Z,20.14
2022-09-06T06:49:55.910Z,20.08
2022-09-06T06:50:55.903Z,20.13
2022-09-06T06:51:55.944Z,20.17
2022-09-06T06:52:55.927Z,20.13
2022-09-06T06:53:55.919Z,20.18
2022-09-06T06:54:55.909Z,20.20
2022-09-06T06:55:55.914Z,20.23
2022-09-06T06:56:55.918Z,20.39
2022-09-06T06:57:55.925Z,20.33
2022-09-06T06:58:55.939Z,20.24
2022-09-06T06:59:55.937Z,20.32
2022-09-06T07:00:56.083Z,20.39
2022-09-06T07:01:56.036Z,20.48
2022-09-06T07:02:55.931Z,20.50
2022-09-06T07:03:55.952Z,20.50
2022-09-06T07:04:55.942Z,20.57
2022-09-06T07:06:12.037Z,20.59
2022-09-06T07:07:55.980Z,20.82
2022-09-06T07:08:55.973Z,20.80
2022-09-06T07:10:55.986Z,20.95
2022-09-06T07:11:55.977Z,20.89
2022-09-06T07:12:55.981Z,20.95
2022-09-06T07:13:55.991Z,20.98
2022-09-06T07:14:55.990Z,21.09
2022-09-06T07:15:56.014Z,21.14
2022-09-06T07:16:56.002Z,21.19
2022-09-06T07:17:56.008Z,21.19
2022-09-06T07:18:55.998Z,21.17
2022-09-06T07:21:56.000Z,21.22
2022-09-06T07:22:56.019Z,21.22
2022-09-06T07:24:11.348Z,21.34
2022-09-06T07:24:56.019Z,21.42
2022-09-06T07:25:56.026Z,21.47
2022-09-06T07:27:56.030Z,21.58
2022-09-06T07:28:56.045Z,21.54
2022-09-06T07:29:56.044Z,21.37
2022-09-06T07:30:56.057Z,21.34
2022-09-06T07:32:11.653Z,21.31
2022-09-06T07:32:56.051Z,21.32
2022-09-06T07:33:56.075Z,21.32
2022-09-06T07:34:56.050Z,21.35
2022-09-06T07:35:56.067Z,21.38
2022-09-06T07:36:56.092Z,21.53
2022-09-06T07:37:56.062Z,21.68
2022-09-06T07:38:56.066Z,21.86
2022-09-06T07:39:56.228Z,21.99
2022-09-06T07:40:56.088Z,22.18
2022-09-06T07:41:56.122Z,22.24
2022-09-06T07:42:56.083Z,22.22
2022-09-06T07:43:56.089Z,22.25
2022-09-06T07:44:56.094Z,22.28
2022-09-06T07:45:56.106Z,22.42
2022-09-06T07:48:56.115Z,22.55
2022-09-06T07:50:59.121Z,22.42
2022-09-06T07:51:56.117Z,22.18
2022-09-06T07:53:15.669Z,21.88
2022-09-06T07:54:19.279Z,21.69
2022-09-06T07:54:56.145Z,21.46
2022-09-06T07:55:56.150Z,21.40
2022-09-06T07:56:56.142Z,21.37
2022-09-06T07:57:56.141Z,21.38
2022-09-06T07:58:56.147Z,21.53
2022-09-06T07:59:56.166Z,21.46
2022-09-06T08:00:56.206Z,21.47
2022-09-06T08:01:56.191Z,21.58
2022-09-06T08:02:56.173Z,21.62
2022-09-06T08:03:56.183Z,21.56
2022-09-06T08:04:56.171Z,21.61
2022-09-06T08:06:11.486Z,21.62
2022-09-06T08:09:56.214Z,21.46
2022-09-06T08:10:56.207Z,21.37
2022-09-06T08:11:56.205Z,21.40
2022-09-06T08:12:56.204Z,21.37
2022-09-06T08:13:56.250Z,21.40
2022-09-06T08:14:56.225Z,21.34
2022-09-06T08:15:56.282Z,21.40
2022-09-06T08:16:56.237Z,21.27
2022-09-06T08:17:56.237Z,21.27
2022-09-06T08:18:56.228Z,21.19
2022-09-06T08:19:56.238Z,21.17
2022-09-06T08:20:56.262Z,21.07
2022-09-06T08:21:56.247Z,20.95
2022-09-06T08:22:56.252Z,20.97
2022-09-06T08:23:56.257Z,20.84
2022-09-06T08:24:56.259Z,20.85
2022-09-06T08:25:56.264Z,20.80
2022-09-06T08:26:56.280Z,20.76
2022-09-06T08:27:56.272Z,20.82
2022-09-06T08:28:56.292Z,20.89
2022-09-06T08:29:56.271Z,20.89
2022-09-06T08:30:56.289Z,20.95
2022-09-06T08:31:56.372Z,20.97
2022-09-06T08:32:56.285Z,20.82
2022-09-06T08:33:56.282Z,20.84
2022-09-06T08:34:56.315Z,20.94
2022-09-06T08:35:56.299Z,20.85
2022-09-06T08:36:56.323Z,20.85
2022-09-06T08:37:56.314Z,20.77
2022-09-06T08:38:56.317Z,20.87
2022-09-06T08:39:56.388Z,20.88
2022-09-06T08:40:56.341Z,20.82
2022-09-06T08:41:56.328Z,20.89
2022-09-06T08:42:56.343Z,20.82
2022-09-06T08:44:57.273Z,20.82
2022-09-06T08:45:56.329Z,20.80
2022-09-06T08:46:56.397Z,20.85
2022-09-06T08:47:56.351Z,20.94
2022-09-06T08:49:04.683Z,21.01
2022-09-06T08:49:56.344Z,21.09
2022-09-06T08:50:56.362Z,21.22
2022-09-06T08:52:03.906Z,21.35
2022-09-06T08:53:19.955Z,21.42
2022-09-06T08:54:04.745Z,21.32
2022-09-06T08:55:04.768Z,21.38
2022-09-06T08:56:04.781Z,21.52
2022-09-06T08:57:04.917Z,21.59
2022-09-06T08:59:39.197Z,21.69
2022-09-06T09:00:43.507Z,21.58
2022-09-06T09:01:44.191Z,21.56
2022-09-06T09:04:31.270Z,21.54
2022-09-06T09:06:54.719Z,21.47
2022-09-06T09:07:54.708Z,21.53
2022-09-06T09:08:54.713Z,21.43
2022-09-06T09:09:54.713Z,21.44
2022-09-06T09:10:54.706Z,21.35
2022-09-06T09:11:54.709Z,21.40
2022-09-06T09:12:54.719Z,21.35
2022-09-06T09:13:55.987Z,21.38
2022-09-06T09:14:54.734Z,21.28
2022-09-06T09:15:54.799Z,21.42
2022-09-06T09:16:54.734Z,21.44
2022-09-06T09:17:54.740Z,21.40
2022-09-06T09:18:54.731Z,21.34
2022-09-06T09:19:54.775Z,21.38
2022-09-06T09:20:54.747Z,21.46
2022-09-06T09:21:54.771Z,21.37
2022-09-06T09:22:54.746Z,21.42
2022-09-06T09:23:54.754Z,21.34
2022-09-06T09:24:54.765Z,21.53
2022-09-06T09:25:54.773Z,21.61
2022-09-06T09:26:54.794Z,21.59
2022-09-06T09:27:54.781Z,21.72
2022-09-06T09:28:54.786Z,21.74
2022-09-06T09:30:54.788Z,21.72
2022-09-06T09:31:54.821Z,21.82
2022-09-06T09:32:54.824Z,21.83
2022-09-06T09:33:54.794Z,21.72
2022-09-06T09:34:54.810Z,21.82
2022-09-06T09:35:54.799Z,21.75
2022-09-06T09:37:59.073Z,21.68
2022-09-06T09:38:54.848Z,21.71
2022-09-06T09:39:54.917Z,21.74
2022-09-06T09:40:54.835Z,21.72
2022-09-06T09:41:54.831Z,21.69
2022-09-06T09:42:54.826Z,21.61
2022-09-06T09:43:54.856Z,21.68
2022-09-06T09:44:54.847Z,21.58
2022-09-06T09:45:54.845Z,21.56
2022-09-06T09:46:54.870Z,21.40
2022-09-06T09:47:54.878Z,21.43
2022-09-06T09:48:54.854Z,21.35
2022-09-06T09:49:54.875Z,21.40
2022-09-06T09:50:54.861Z,21.38
2022-09-06T09:51:54.870Z,21.37
2022-09-06T09:52:54.910Z,21.38
2022-09-06T09:53:54.880Z,21.47
2022-09-06T09:54:54.904Z,21.44
2022-09-06T09:55:54.891Z,21.42
2022-09-06T09:56:54.887Z,21.49
2022-09-06T09:57:54.890Z,21.46
2022-09-06T09:58:54.937Z,21.56
2022-09-06T09:59:54.918Z,21.49
2022-09-06T10:00:54.935Z,21.53
2022-09-06T10:01:54.916Z,21.56
2022-09-06T10:02:54.923Z,21.54
2022-09-06T10:04:54.950Z,21.56
2022-09-06T10:05:58.910Z,21.59
2022-09-06T10:07:10.629Z,21.56
2022-09-06T10:07:54.933Z,21.58
2022-09-06T10:08:54.937Z,21.43
2022-09-06T10:09:54.990Z,21.50
2022-09-06T10:10:54.961Z,21.53
2022-09-06T10:11:54.942Z,21.50
2022-09-06T10:12:54.949Z,21.56
2022-09-06T10:13:54.952Z,21.47
2022-09-06T10:14:54.982Z,21.58
2022-09-06T10:15:54.980Z,21.50
2022-09-06T10:16:54.974Z,21.44
2022-09-06T10:17:54.975Z,21.50
2022-09-06T10:18:54.986Z,21.44
2022-09-06T10:19:54.986Z,21.47
2022-09-06T10:20:55.024Z,21.38
2022-09-06T10:21:54.984Z,21.49
2022-09-06T10:22:54.998Z,21.34
2022-09-06T10:24:55.001Z,21.52
2022-09-06T10:25:55.037Z,21.47
2022-09-06T10:26:55.044Z,21.50
2022-09-06T10:28:10.381Z,21.47
2022-09-06T10:28:55.025Z,21.52
2022-09-06T10:29:55.026Z,21.62
2022-09-06T10:30:55.092Z,21.61
2022-09-06T10:31:55.027Z,21.54
2022-09-06T10:32:55.080Z,21.54
2022-09-06T10:33:55.049Z,21.56
2022-09-06T10:34:55.058Z,21.56
2022-09-06T10:35:55.065Z,21.71
2022-09-06T10:36:55.048Z,21.69
2022-09-06T10:37:55.060Z,21.69
2022-09-06T10:38:55.092Z,21.69
2022-09-06T10:39:55.153Z,21.80
2022-09-06T10:40:55.118Z,21.80
2022-09-06T10:41:55.102Z,21.91
2022-09-06T10:42:55.074Z,22.09
2022-09-06T10:43:55.074Z,22.18
2022-09-06T10:44:55.098Z,22.37
2022-09-06T10:45:55.100Z,22.49
2022-09-06T10:46:55.147Z,22.70
2022-09-06T10:47:55.113Z,22.94
2022-09-06T10:48:55.116Z,23.10
2022-09-06T10:49:55.092Z,23.40
2022-09-06T10:50:55.104Z,23.46
2022-09-06T10:51:55.105Z,23.53
2022-09-06T10:52:55.152Z,23.46
2022-09-06T10:53:55.154Z,23.53
2022-09-06T10:54:55.129Z,23.51
2022-09-06T10:55:57.815Z,23.57
2022-09-06T10:56:55.132Z,23.68
2022-09-06T10:59:55.143Z,24.20
2022-09-06T11:00:55.227Z,24.45
2022-09-06T11:01:55.268Z,24.30
2022-09-06T11:03:58.289Z,24.43
2022-09-06T11:05:55.185Z,24.64
2022-09-06T11:06:55.245Z,24.80
2022-09-06T11:08:58.164Z,24.95
2022-09-06T11:09:55.270Z,25.09
2022-09-06T11:10:55.246Z,25.14
2022-09-06T11:11:55.221Z,25.05
2022-09-06T11:12:55.243Z,24.76
2022-09-06T11:13:55.262Z,24.62
2022-09-06T11:14:55.266Z,24.49
2022-09-06T11:15:55.350Z,24.22
2022-09-06T11:16:55.281Z,24.08
2022-09-06T11:17:55.269Z,23.90
2022-09-06T11:18:55.285Z,23.76
2022-09-06T11:19:55.299Z,23.58
2022-09-06T11:20:55.317Z,23.51
2022-09-06T11:21:55.321Z,23.53
2022-09-06T11:22:55.308Z,23.35
2022-09-06T11:23:55.319Z,23.27
2022-09-06T11:24:55.338Z,23.20
2022-09-06T11:25:55.355Z,23.36
2022-09-06T11:26:55.323Z,23.32
2022-09-06T11:27:58.090Z,23.25
2022-09-06T11:28:55.363Z,23.33
2022-09-06T11:29:55.354Z,23.27
2022-09-06T11:30:55.374Z,23.19
2022-09-06T11:32:55.357Z,23.09
2022-09-06T11:33:58.375Z,23.12
2022-09-06T11:34:55.368Z,23.05
2022-09-06T11:35:55.385Z,22.91
2022-09-06T11:36:55.380Z,22.95
2022-09-06T11:37:55.399Z,22.94
2022-09-06T11:38:55.403Z,22.91
2022-09-06T11:40:55.415Z,22.90
2022-09-06T11:41:55.414Z,22.91
2022-09-06T11:42:55.460Z,22.85
2022-09-06T11:43:55.435Z,22.86
2022-09-06T11:44:55.430Z,22.88
2022-09-06T11:45:55.490Z,22.92
2022-09-06T11:46:55.506Z,22.95
2022-09-06T11:47:55.484Z,22.92
2022-09-06T11:48:55.446Z,23.05
2022-09-06T11:49:55.496Z,23.09
2022-09-06T11:50:55.455Z,23.12
2022-09-06T11:51:55.469Z,23.23
2022-09-06T11:52:55.478Z,23.42
2022-09-06T11:53:55.499Z,23.51
2022-09-06T11:54:55.487Z,23.61
2022-09-06T11:55:55.492Z,23.65
2022-09-06T11:56:55.520Z,23.65
2022-09-06T11:57:55.500Z,23.58
2022-09-06T11:58:55.504Z,23.57
2022-09-06T11:59:55.546Z,23.51
2022-09-06T12:00:55.518Z,23.42
2022-09-06T12:01:55.532Z,23.40
2022-09-06T12:04:58.350Z,23.27
2022-09-06T12:05:55.548Z,23.22
2022-09-06T12:06:55.537Z,23.22
2022-09-06T12:07:55.536Z,23.20
2022-09-06T12:08:55.558Z,23.33
2022-09-06T12:09:55.565Z,23.33
2022-09-06T12:10:55.593Z,23.25
2022-09-06T12:11:55.568Z,23.25
2022-09-06T12:12:55.565Z,23.10
2022-09-06T12:13:55.583Z,23.10
2022-09-06T12:14:55.579Z,23.10
2022-09-06T12:15:55.658Z,23.07
2022-09-06T12:16:55.644Z,23.05
2022-09-06T12:17:55.590Z,23.12
2022-09-06T12:18:55.603Z,23.05
2022-09-06T12:19:55.609Z,23.10
2022-09-06T12:20:55.615Z,23.10
2022-09-06T12:21:55.621Z,23.04
2022-09-06T12:22:55.679Z,23.10
2022-09-06T12:23:55.630Z,23.13
2022-09-06T12:24:55.641Z,23.15
2022-09-06T12:25:55.650Z,23.22
2022-09-06T12:26:56.140Z,23.25
2022-09-06T12:27:55.738Z,23.15
2022-09-06T12:28:55.664Z,23.22
2022-09-06T12:29:55.650Z,23.32
2022-09-06T12:30:55.735Z,23.32
2022-09-06T12:31:55.671Z,23.32
2022-09-06T12:32:55.697Z,23.25
2022-09-06T12:33:55.686Z,23.32
2022-09-06T12:36:55.716Z,23.36
2022-09-06T12:37:55.745Z,23.46
2022-09-06T12:38:55.704Z,23.48
2022-09-06T12:39:55.757Z,23.57
2022-09-06T12:40:55.717Z,23.57
2022-09-06T12:41:55.707Z,23.63
2022-09-06T12:42:55.726Z,23.60
2022-09-06T12:43:55.773Z,23.70
2022-09-06T12:44:55.725Z,23.73
2022-09-06T12:45:55.737Z,23.80
2022-09-06T12:46:55.747Z,23.79
2022-09-06T12:47:55.742Z,23.87
2022-09-06T12:48:55.781Z,23.80
2022-09-06T12:49:55.751Z,24.03
2022-09-06T12:50:55.758Z,24.00
2022-09-06T12:51:55.780Z,24.10
2022-09-06T12:52:55.780Z,24.12
2022-09-06T12:53:55.843Z,24.20
2022-09-06T12:54:55.792Z,24.25
2022-09-06T12:55:55.787Z,24.22
2022-09-06T12:56:55.794Z,24.25
2022-09-06T12:57:55.791Z,24.09
2022-09-06T12:58:55.830Z,24.09
2022-09-06T12:59:55.842Z,24.09
2022-09-06T13:00:55.804Z,24.12
2022-09-06T13:01:55.939Z,24.00
2022-09-06T13:02:55.946Z,24.03
2022-09-06T13:03:55.816Z,23.90
2022-09-06T13:06:27.939Z,23.95
2022-09-06T13:07:27.901Z,23.94
2022-09-06T13:08:28.053Z,23.90
2022-09-06T13:09:27.924Z,23.83
2022-09-06T13:10:27.924Z,23.88
2022-09-06T13:11:27.913Z,23.91
2022-09-06T13:12:27.931Z,23.87
2022-09-06T13:13:27.927Z,23.87
2022-09-06T13:16:01.124Z,24.12
2022-09-06T13:20:10.377Z,24.49
2022-09-06T13:21:04.232Z,24.50
2022-09-06T13:22:04.230Z,24.57
2022-09-06T13:23:04.255Z,24.50
2022-09-06T13:24:04.227Z,24.57
2022-09-06T13:25:04.227Z,24.57
2022-09-06T13:26:04.264Z,24.65
2022-09-06T13:27:04.248Z,24.62
2022-09-06T13:28:04.254Z,24.67
2022-09-06T13:29:04.267Z,24.67
2022-09-06T13:30:04.282Z,24.68
2022-09-06T13:31:04.329Z,24.69
2022-09-06T13:32:04.295Z,24.67